createdAt,value
2018-05-14T00:00:27.536Z,13.6
2018-05-14T00:01:28.929Z,13.6
2018-05-14T00:02:30.324Z,13.6
2018-05-14T00:03:31.714Z,13.6
2018-05-14T00:04:33.105Z,13.6
2018-05-14T00:05:34.508Z,13.6
2018-05-14T00:06:35.898Z,13.6
2018-05-14T00:07:37.293Z,13.6
2018-05-14T00:08:38.821Z,13.6
2018-05-14T00:09:40.283Z,13.6
2018-05-14T00:10:41.679Z,13.6
2018-05-14T00:11:43.070Z,13.6
2018-05-14T00:12:44.460Z,13.6
2018-05-14T00:13:45.849Z,13.6
2018-05-14T00:14:47.239Z,13.6
2018-05-14T00:15:48.659Z,13.6
2018-05-14T00:16:50.051Z,13.6
2018-05-14T00:17:51.443Z,13.6
2018-05-14T00:18:52.839Z,13.6
2018-05-14T00:19:54.227Z,13.6
2018-05-14T00:20:55.611Z,13.7
2018-05-14T00:21:56.999Z,13.6
2018-05-14T00:22:58.392Z,13.6
2018-05-14T00:23:59.790Z,13.6
2018-05-14T00:25:01.174Z,13.6
2018-05-14T00:26:02.572Z,13.5
2018-05-14T00:27:03.963Z,13.6
2018-05-14T00:28:05.355Z,13.6
2018-05-14T00:29:06.747Z,13.6
2018-05-14T00:30:08.140Z,13.5
2018-05-14T00:31:09.531Z,13.6
2018-05-14T00:32:10.922Z,13.5
2018-05-14T00:33:12.314Z,13.5
2018-05-14T00:34:13.708Z,13.5
2018-05-14T00:35:15.094Z,13.5
2018-05-14T00:36:16.486Z,13.5
2018-05-14T00:37:17.878Z,13.5
2018-05-14T00:38:19.272Z,13.6
2018-05-14T00:39:20.661Z,13.5
2018-05-14T00:40:22.053Z,13.6
2018-05-14T00:41:23.443Z,13.5
2018-05-14T00:42:24.836Z,13.5
2018-05-14T00:43:26.217Z,13.5
2018-05-14T00:44:27.623Z,13.5
2018-05-14T00:45:29.008Z,13.6
2018-05-14T00:46:30.418Z,13.5
2018-05-14T00:47:31.811Z,13.5
2018-05-14T00:48:33.201Z,13.5
2018-05-14T00:49:34.617Z,13.5
2018-05-14T00:50:35.984Z,13.6
2018-05-14T00:51:37.373Z,13.6
2018-05-14T00:52:38.763Z,13.5
2018-05-14T00:53:40.152Z,13.6
2018-05-14T00:54:41.544Z,13.5
2018-05-14T00:55:42.938Z,13.5
2018-05-14T00:56:44.355Z,13.6
2018-05-14T00:57:45.793Z,13.5
2018-05-14T00:58:47.182Z,13.4
2018-05-14T00:59:48.573Z,13.5
2018-05-14T01:00:49.966Z,13.5
2018-05-14T01:01:51.356Z,13.5
2018-05-14T01:02:52.744Z,13.5
2018-05-14T01:03:54.133Z,13.5
2018-05-14T01:04:55.521Z,13.5
2018-05-14T01:05:56.913Z,13.5
2018-05-14T01:06:58.303Z,13.5
2018-05-14T01:07:59.700Z,13.5
2018-05-14T01:09:01.098Z,13.5
2018-05-14T01:10:02.492Z,13.5
2018-05-14T01:11:03.901Z,13.6
2018-05-14T01:12:05.292Z,13.5
2018-05-14T01:13:06.681Z,13.5
2018-05-14T01:14:08.072Z,13.5
2018-05-14T01:15:09.467Z,13.6
2018-05-14T01:16:10.862Z,13.5
2018-05-14T01:17:12.242Z,13.6
2018-05-14T01:18:13.632Z,13.6
2018-05-14T01:19:15.022Z,13.5
2018-05-14T01:20:16.412Z,13.5
2018-05-14T01:21:17.801Z,13.5
2018-05-14T01:22:19.191Z,13.5
2018-05-14T01:23:20.585Z,13.4
2018-05-14T01:24:21.974Z,13.5
2018-05-14T01:25:23.366Z,13.5
2018-05-14T01:26:24.757Z,13.5
2018-05-14T01:27:26.149Z,13.5
2018-05-14T01:28:27.537Z,13.5
2018-05-14T01:29:28.926Z,13.5
2018-05-14T01:30:30.319Z,13.5
2018-05-14T01:31:31.710Z,13.5
2018-05-14T01:32:33.101Z,13.4
2018-05-14T01:33:34.495Z,13.5
2018-05-14T01:34:35.883Z,13.4
2018-05-14T01:35:37.274Z,13.5
2018-05-14T01:36:38.664Z,13.5
2018-05-14T01:37:40.057Z,13.4
2018-05-14T01:38:41.446Z,13.4
2018-05-14T01:39:42.838Z,13.4
2018-05-14T01:40:44.227Z,13.4
2018-05-14T01:41:45.615Z,13.4
2018-05-14T01:42:47.009Z,13.5
2018-05-14T01:43:48.400Z,13.4
2018-05-14T01:44:49.792Z,13.5
2018-05-14T01:45:51.288Z,13.4
2018-05-14T01:46:52.676Z,13.5
2018-05-14T01:47:54.067Z,13.4
2018-05-14T01:48:55.457Z,13.4
2018-05-14T01:49:56.852Z,13.5
2018-05-14T01:50:58.249Z,13.5
2018-05-14T01:51:59.641Z,13.5
2018-05-14T01:53:01.025Z,13.4
2018-05-14T01:54:02.416Z,13.4
2018-05-14T01:55:03.808Z,13.5
2018-05-14T01:56:05.199Z,13.4
2018-05-14T01:57:06.592Z,13.4
2018-05-14T01:58:07.982Z,13.4
2018-05-14T01:59:09.372Z,13.4
2018-05-14T02:00:10.760Z,13.4
2018-05-14T02:01:12.149Z,13.4
2018-05-14T02:02:13.541Z,13.5
2018-05-14T02:03:14.933Z,13.4
2018-05-14T02:04:16.323Z,13.5
2018-05-14T02:05:17.711Z,13.4
2018-05-14T02:06:19.106Z,13.4
2018-05-14T02:07:20.495Z,13.4
2018-05-14T02:08:21.886Z,13.4
2018-05-14T02:09:23.276Z,13.4
2018-05-14T02:10:24.668Z,13.4
2018-05-14T02:11:26.056Z,13.3
2018-05-14T02:12:27.476Z,13.3
2018-05-14T02:13:28.838Z,13.4
2018-05-14T02:14:30.231Z,13.3
2018-05-14T02:15:31.618Z,13.3
2018-05-14T02:16:33.009Z,13.4
2018-05-14T02:17:34.394Z,13.2
2018-05-14T02:18:35.789Z,13.3
2018-05-14T02:19:37.181Z,13.3
2018-05-14T02:20:38.574Z,13.2
2018-05-14T02:21:40.689Z,13.2
2018-05-14T02:22:42.082Z,13.3
2018-05-14T02:23:43.470Z,13.2
2018-05-14T02:24:44.869Z,13.2
2018-05-14T02:25:46.249Z,13.3
2018-05-14T02:26:47.645Z,13.3
2018-05-14T02:27:49.029Z,13.3
2018-05-14T02:28:50.427Z,13.2
2018-05-14T02:29:51.816Z,13.2
2018-05-14T02:30:53.203Z,13.2
2018-05-14T02:31:54.593Z,13.2
2018-05-14T02:32:56.001Z,13.1
2018-05-14T02:33:57.398Z,13.3
2018-05-14T02:34:58.789Z,13.2
2018-05-14T02:36:00.179Z,13.2
2018-05-14T02:37:01.568Z,13.2
2018-05-14T02:38:02.960Z,13.2
2018-05-14T02:39:04.374Z,13.3
2018-05-14T02:40:05.767Z,13.3
2018-05-14T02:41:07.156Z,13.4
2018-05-14T02:42:08.551Z,13.3
2018-05-14T02:43:09.940Z,13.4
2018-05-14T02:44:11.329Z,13.3
2018-05-14T02:45:12.719Z,13.3
2018-05-14T02:46:14.114Z,13.3
2018-05-14T02:47:15.508Z,13.2
2018-05-14T02:48:16.901Z,13.2
2018-05-14T02:49:18.288Z,13.3
2018-05-14T02:50:19.671Z,13.3
2018-05-14T02:51:21.062Z,13.3
2018-05-14T02:52:22.452Z,13.4
2018-05-14T02:53:23.846Z,13.3
2018-05-14T02:54:25.237Z,13.3
2018-05-14T02:55:26.627Z,13.2
2018-05-14T02:56:28.018Z,13.3
2018-05-14T02:57:29.420Z,13.2
2018-05-14T02:58:30.796Z,13.3
2018-05-14T02:59:32.192Z,13.2
2018-05-14T03:00:33.577Z,13.3
2018-05-14T03:01:34.974Z,13.2
2018-05-14T03:02:36.446Z,13.3
2018-05-14T03:03:37.844Z,13.3
2018-05-14T03:04:39.231Z,13.3
2018-05-14T03:05:40.623Z,13.3
2018-05-14T03:06:42.012Z,13.3
2018-05-14T03:07:43.397Z,13.4
2018-05-14T03:08:44.784Z,13.3
2018-05-14T03:09:46.175Z,13.3
2018-05-14T03:10:47.688Z,13.3
2018-05-14T03:11:48.962Z,13.3
2018-05-14T03:12:50.350Z,13.4
2018-05-14T03:13:51.744Z,13.3
2018-05-14T03:14:53.133Z,13.4
2018-05-14T03:15:54.520Z,13.4
2018-05-14T03:16:55.914Z,13.4
2018-05-14T03:17:57.307Z,13.4
2018-05-14T03:18:58.700Z,13.4
2018-05-14T03:20:00.088Z,13.4
2018-05-14T03:21:01.559Z,13.4
2018-05-14T03:22:02.987Z,13.4
2018-05-14T03:23:04.380Z,13.5
2018-05-14T03:24:05.770Z,13.4
2018-05-14T03:25:07.164Z,13.4
2018-05-14T03:26:08.560Z,13.4
2018-05-14T03:27:09.943Z,13.5
2018-05-14T03:28:11.338Z,13.4
2018-05-14T03:29:12.729Z,13.4
2018-05-14T03:30:14.124Z,13.4
2018-05-14T03:31:15.518Z,13.4
2018-05-14T03:32:16.908Z,13.4
2018-05-14T03:33:18.300Z,13.5
2018-05-14T03:34:19.688Z,13.4
2018-05-14T03:35:21.079Z,13.4
2018-05-14T03:36:22.471Z,13.4
2018-05-14T03:37:23.862Z,13.5
2018-05-14T03:38:25.256Z,13.4
2018-05-14T03:39:26.650Z,13.5
2018-05-14T03:40:28.035Z,13.4
2018-05-14T03:41:29.424Z,13.4
2018-05-14T03:42:30.814Z,13.4
2018-05-14T03:43:32.204Z,13.4
2018-05-14T03:44:33.597Z,13.3
2018-05-14T03:45:34.987Z,13.4
2018-05-14T03:46:36.379Z,13.4
2018-05-14T03:47:37.767Z,13.5
2018-05-14T03:48:39.157Z,13.4
2018-05-14T03:49:40.550Z,13.4
2018-05-14T03:50:41.942Z,13.4
2018-05-14T03:51:43.335Z,13.4
2018-05-14T03:52:44.736Z,13.3
2018-05-14T03:53:46.133Z,13.4
2018-05-14T03:54:47.523Z,13.3
2018-05-14T03:55:48.912Z,13.4
2018-05-14T03:56:50.306Z,13.4
2018-05-14T03:57:51.696Z,13.4
2018-05-14T03:58:53.090Z,13.4
2018-05-14T03:59:54.482Z,13.4
2018-05-14T04:00:55.874Z,13.5
2018-05-14T04:01:57.269Z,13.4
2018-05-14T04:02:58.659Z,13.4
2018-05-14T04:04:00.054Z,13.4
2018-05-14T04:05:01.442Z,13.3
2018-05-14T04:06:02.840Z,13.3
2018-05-14T04:07:04.227Z,13.4
2018-05-14T04:08:05.623Z,13.4
2018-05-14T04:09:07.060Z,13.4
2018-05-14T04:10:08.444Z,13.4
2018-05-14T04:11:09.824Z,13.4
2018-05-14T04:12:11.214Z,13.4
2018-05-14T04:13:12.612Z,13.3
2018-05-14T04:14:14.001Z,13.3
2018-05-14T04:15:15.396Z,13.4
2018-05-14T04:16:16.789Z,13.4
2018-05-14T04:17:18.180Z,13.4
2018-05-14T04:18:19.572Z,13.3
2018-05-14T04:19:20.970Z,13.4
2018-05-14T04:20:22.364Z,13.4
2018-05-14T04:21:23.755Z,13.3
2018-05-14T04:22:25.147Z,13.4
2018-05-14T04:23:26.538Z,13.4
2018-05-14T04:24:28.023Z,13.3
2018-05-14T04:25:29.321Z,13.4
2018-05-14T04:26:30.713Z,13.4
2018-05-14T04:27:32.108Z,13.5
2018-05-14T04:28:33.494Z,13.4
2018-05-14T04:29:34.889Z,13.5
2018-05-14T04:30:36.287Z,13.4
2018-05-14T04:31:37.676Z,13.4
2018-05-14T04:32:39.068Z,13.4
2018-05-14T04:33:40.460Z,13.5
2018-05-14T04:34:41.860Z,13.5
2018-05-14T04:35:43.268Z,13.4
2018-05-14T04:36:44.666Z,13.4
2018-05-14T04:37:46.054Z,13.5
2018-05-14T04:38:47.445Z,13.4
2018-05-14T04:39:48.833Z,13.5
2018-05-14T04:40:50.227Z,13.4
2018-05-14T04:41:51.622Z,13.5
2018-05-14T04:42:53.087Z,13.4
2018-05-14T04:43:54.544Z,13.5
2018-05-14T04:44:55.937Z,13.4
2018-05-14T04:45:57.330Z,13.4
2018-05-14T04:46:58.722Z,13.4
2018-05-14T04:48:00.114Z,13.4
2018-05-14T04:49:01.504Z,13.5
2018-05-14T04:50:02.910Z,13.5
2018-05-14T04:51:04.291Z,13.5
2018-05-14T04:52:05.684Z,13.5
2018-05-14T04:53:07.077Z,13.5
2018-05-14T04:54:08.472Z,13.5
2018-05-14T04:55:09.862Z,13.5
2018-05-14T04:56:11.253Z,13.5
2018-05-14T04:57:12.646Z,13.5
2018-05-14T04:58:14.134Z,13.6
2018-05-14T04:59:15.629Z,13.6
2018-05-14T05:00:16.944Z,13.6
2018-05-14T05:01:18.326Z,13.6
2018-05-14T05:02:19.720Z,13.6
2018-05-14T05:03:21.109Z,13.6
2018-05-14T05:04:22.504Z,13.6
2018-05-14T05:05:23.911Z,13.6
2018-05-14T05:06:25.311Z,13.6
2018-05-14T05:07:26.697Z,13.6
2018-05-14T05:08:28.090Z,13.6
2018-05-14T05:09:29.485Z,13.6
2018-05-14T05:10:30.930Z,13.7
2018-05-14T05:11:32.281Z,13.7
2018-05-14T05:12:33.667Z,13.7
2018-05-14T05:13:35.061Z,13.7
2018-05-14T05:14:36.459Z,13.7
2018-05-14T05:15:37.851Z,13.8
2018-05-14T05:16:39.245Z,13.7
2018-05-14T05:17:40.638Z,13.8
2018-05-14T05:18:42.028Z,13.8
2018-05-14T05:19:43.423Z,13.8
2018-05-14T05:20:44.818Z,13.8
2018-05-14T05:21:46.211Z,13.7
2018-05-14T05:22:47.698Z,13.8
2018-05-14T05:23:49.807Z,13.8
2018-05-14T05:24:51.210Z,13.9
2018-05-14T05:25:52.607Z,13.9
2018-05-14T05:26:54.002Z,13.8
2018-05-14T05:27:55.394Z,13.9
2018-05-14T05:28:56.785Z,13.9
2018-05-14T05:29:58.182Z,13.9
2018-05-14T05:30:59.576Z,13.9
2018-05-14T05:32:00.970Z,13.9
2018-05-14T05:33:02.366Z,13.9
2018-05-14T05:34:03.761Z,14.0
2018-05-14T05:35:05.154Z,13.9
2018-05-14T05:36:06.543Z,13.9
2018-05-14T05:37:07.938Z,14.0
2018-05-14T05:38:09.333Z,13.9
2018-05-14T05:39:10.728Z,14.0
2018-05-14T05:40:12.126Z,13.9
2018-05-14T05:41:13.522Z,13.9
2018-05-14T05:42:14.914Z,14.0
2018-05-14T05:43:16.305Z,14.0
2018-05-14T05:44:17.701Z,14.0
2018-05-14T05:45:19.127Z,14.0
2018-05-14T05:46:20.530Z,13.9
2018-05-14T05:47:21.962Z,14.0
2018-05-14T05:48:24.182Z,14.0
2018-05-14T05:49:25.573Z,14.0
2018-05-14T05:50:26.967Z,13.9
2018-05-14T05:51:28.387Z,13.9
2018-05-14T05:52:29.839Z,14.0
2018-05-14T05:53:31.192Z,14.0
2018-05-14T05:54:32.587Z,14.0
2018-05-14T05:55:33.991Z,14.1
2018-05-14T05:56:35.380Z,14.0
2018-05-14T05:57:36.773Z,14.0
2018-05-14T05:58:38.181Z,14.0
2018-05-14T05:59:39.570Z,14.0
2018-05-14T06:00:40.967Z,14.0
2018-05-14T06:01:42.363Z,14.0
2018-05-14T06:02:43.760Z,14.0
2018-05-14T06:03:45.150Z,14.0
2018-05-14T06:04:46.545Z,14.1
2018-05-14T06:05:47.937Z,14.0
2018-05-14T06:06:49.332Z,14.0
2018-05-14T06:07:50.723Z,14.0
2018-05-14T06:08:52.120Z,14.1
2018-05-14T06:09:53.515Z,14.1
2018-05-14T06:10:54.907Z,14.2
2018-05-14T06:11:56.292Z,14.1
2018-05-14T06:12:57.701Z,14.1
2018-05-14T06:13:59.094Z,14.1
2018-05-14T06:15:00.491Z,14.2
2018-05-14T06:16:01.888Z,14.1
2018-05-14T06:17:03.283Z,14.3
2018-05-14T06:18:04.676Z,14.2
2018-05-14T06:19:06.065Z,14.2
2018-05-14T06:20:07.458Z,14.2
2018-05-14T06:21:08.856Z,14.3
2018-05-14T06:22:10.246Z,14.3
2018-05-14T06:23:11.643Z,14.2
2018-05-14T06:24:13.036Z,14.4
2018-05-14T06:25:14.430Z,14.4
2018-05-14T06:26:15.826Z,14.4
2018-05-14T06:27:17.232Z,14.3
2018-05-14T06:28:18.625Z,14.4
2018-05-14T06:29:20.019Z,14.3
2018-05-14T06:30:21.410Z,14.4
2018-05-14T06:31:22.807Z,14.4
2018-05-14T06:32:24.210Z,14.5
2018-05-14T06:33:25.628Z,14.5
2018-05-14T06:34:27.023Z,14.4
2018-05-14T06:35:28.524Z,14.4
2018-05-14T06:36:29.813Z,14.5
2018-05-14T06:37:31.209Z,14.5
2018-05-14T06:38:32.603Z,14.5
2018-05-14T06:39:34.017Z,14.5
2018-05-14T06:40:35.410Z,14.5
2018-05-14T06:41:36.806Z,14.5
2018-05-14T06:42:38.199Z,14.5
2018-05-14T06:43:39.597Z,14.6
2018-05-14T06:44:40.987Z,14.5
2018-05-14T06:45:42.384Z,14.5
2018-05-14T06:46:43.776Z,14.6
2018-05-14T06:47:45.167Z,14.6
2018-05-14T06:48:46.561Z,14.6
2018-05-14T06:49:47.980Z,14.7
2018-05-14T06:50:49.351Z,14.7
2018-05-14T06:51:50.748Z,14.6
2018-05-14T06:52:52.146Z,14.7
2018-05-14T06:53:53.543Z,14.7
2018-05-14T06:54:54.937Z,14.7
2018-05-14T06:55:56.331Z,14.6
2018-05-14T06:56:57.732Z,14.7
2018-05-14T06:57:59.121Z,14.6
2018-05-14T06:59:00.514Z,14.7
2018-05-14T07:00:01.911Z,14.6
2018-05-14T07:01:03.309Z,14.7
2018-05-14T07:02:04.702Z,14.8
2018-05-14T07:03:06.177Z,14.8
2018-05-14T07:04:07.489Z,14.8
2018-05-14T07:05:08.883Z,14.8
2018-05-14T07:06:10.279Z,14.8
2018-05-14T07:07:11.678Z,14.8
2018-05-14T07:08:13.074Z,14.9
2018-05-14T07:09:14.466Z,14.8
2018-05-14T07:10:15.970Z,14.9
2018-05-14T07:11:17.252Z,14.8
2018-05-14T07:12:18.653Z,14.9
2018-05-14T07:13:20.044Z,14.9
2018-05-14T07:14:21.442Z,14.9
2018-05-14T07:15:22.835Z,15.0
2018-05-14T07:16:24.230Z,15.0
2018-05-14T07:17:25.625Z,14.9
2018-05-14T07:18:27.019Z,14.9
2018-05-14T07:19:28.414Z,15.0
2018-05-14T07:20:29.839Z,15.0
2018-05-14T07:21:31.238Z,15.0
2018-05-14T07:22:32.629Z,15.0
2018-05-14T07:23:34.029Z,15.0
2018-05-14T07:24:35.529Z,15.0
2018-05-14T07:25:36.815Z,15.0
2018-05-14T07:26:38.223Z,15.0
2018-05-14T07:27:39.621Z,15.0
2018-05-14T07:28:41.016Z,15.1
2018-05-14T07:29:42.408Z,15.1
2018-05-14T07:30:43.799Z,15.2
2018-05-14T07:31:45.192Z,15.1
2018-05-14T07:32:46.608Z,15.1
2018-05-14T07:33:48.001Z,15.1
2018-05-14T07:34:49.396Z,15.1
2018-05-14T07:35:50.791Z,15.2
2018-05-14T07:36:52.189Z,15.1
2018-05-14T07:37:53.590Z,15.1
2018-05-14T07:38:54.984Z,15.2
2018-05-14T07:39:56.382Z,15.2
2018-05-14T07:40:57.772Z,15.4
2018-05-14T07:41:59.178Z,15.3
2018-05-14T07:43:00.559Z,15.3
2018-05-14T07:44:01.971Z,15.3
2018-05-14T07:45:03.360Z,15.3
2018-05-14T07:46:04.819Z,15.3
2018-05-14T07:47:06.151Z,15.4
2018-05-14T07:48:07.547Z,15.4
2018-05-14T07:49:08.942Z,15.4
2018-05-14T07:50:10.337Z,15.3
2018-05-14T07:51:11.727Z,15.4
2018-05-14T07:52:13.121Z,15.4
2018-05-14T07:53:14.512Z,15.4
2018-05-14T07:54:15.906Z,15.4
2018-05-14T07:55:17.301Z,15.4
2018-05-14T07:56:18.727Z,15.5
2018-05-14T07:57:20.128Z,15.5
2018-05-14T07:58:21.526Z,15.6
2018-05-14T07:59:22.923Z,15.5
2018-05-14T08:00:24.363Z,15.6
2018-05-14T08:01:25.712Z,15.5
2018-05-14T08:02:27.103Z,15.6
2018-05-14T08:03:28.499Z,15.6
2018-05-14T08:04:30.068Z,15.5
2018-05-14T08:05:31.375Z,15.6
2018-05-14T08:06:32.685Z,15.6
2018-05-14T08:07:34.081Z,15.6
2018-05-14T08:08:35.566Z,15.6
2018-05-14T08:09:37.010Z,15.6
2018-05-14T08:10:38.406Z,15.6
2018-05-14T08:11:39.860Z,15.7
2018-05-14T08:12:41.201Z,15.7
2018-05-14T08:13:42.597Z,15.8
2018-05-14T08:14:43.995Z,15.7
2018-05-14T08:15:45.389Z,15.7
2018-05-14T08:16:46.784Z,15.8
2018-05-14T08:17:48.180Z,15.8
2018-05-14T08:18:49.577Z,15.8
2018-05-14T08:19:50.971Z,15.9
2018-05-14T08:20:52.366Z,15.9
2018-05-14T08:21:53.776Z,16.0
2018-05-14T08:22:55.175Z,15.9
2018-05-14T08:23:56.568Z,16.0
2018-05-14T08:24:57.967Z,15.9
2018-05-14T08:25:59.365Z,16.0
2018-05-14T08:27:00.759Z,16.0
2018-05-14T08:28:02.164Z,16.1
2018-05-14T08:29:03.576Z,16.1
2018-05-14T08:30:04.970Z,16.1
2018-05-14T08:31:06.367Z,16.1
2018-05-14T08:32:07.990Z,16.2
2018-05-14T08:33:09.160Z,16.2
2018-05-14T08:34:10.556Z,16.3
2018-05-14T08:35:11.954Z,16.3
2018-05-14T08:36:13.347Z,16.3
2018-05-14T08:37:14.806Z,16.3
2018-05-14T08:38:16.138Z,16.3
2018-05-14T08:39:17.534Z,16.4
2018-05-14T08:40:18.951Z,16.4
2018-05-14T08:41:20.325Z,16.5
2018-05-14T08:42:21.773Z,16.6
2018-05-14T08:43:23.116Z,16.6
2018-05-14T08:44:24.515Z,16.6
2018-05-14T08:45:25.913Z,16.6
2018-05-14T08:46:27.310Z,16.7
2018-05-14T08:47:28.708Z,16.7
2018-05-14T08:48:30.103Z,16.7
2018-05-14T08:49:31.502Z,16.8
2018-05-14T08:50:32.895Z,16.8
2018-05-14T08:51:34.301Z,16.9
2018-05-14T08:52:35.687Z,16.9
2018-05-14T08:53:37.084Z,16.9
2018-05-14T08:54:38.496Z,17.0
2018-05-14T08:55:39.883Z,17.0
2018-05-14T08:56:41.346Z,17.1
2018-05-14T08:57:42.826Z,17.1
2018-05-14T08:58:44.127Z,17.2
2018-05-14T08:59:45.525Z,17.4
2018-05-14T09:00:46.987Z,17.4
2018-05-14T09:01:48.323Z,17.6
2018-05-14T09:02:49.722Z,17.5
2018-05-14T09:03:51.121Z,17.4
2018-05-14T09:04:52.519Z,17.5
2018-05-14T09:05:53.919Z,17.6
2018-05-14T09:06:55.462Z,17.6
2018-05-14T09:07:56.724Z,17.7
2018-05-14T09:08:58.120Z,17.7
2018-05-14T09:09:59.516Z,17.9
2018-05-14T09:11:00.914Z,17.9
2018-05-14T09:12:02.306Z,17.9
2018-05-14T09:13:03.702Z,18.0
2018-05-14T09:14:05.102Z,18.0
2018-05-14T09:15:06.501Z,18.0
2018-05-14T09:16:07.902Z,18.0
2018-05-14T09:17:09.299Z,18.1
2018-05-14T09:18:10.696Z,18.1
2018-05-14T09:19:12.113Z,18.1
2018-05-14T09:20:13.493Z,18.2
2018-05-14T09:21:14.890Z,18.2
2018-05-14T09:22:16.284Z,18.3
2018-05-14T09:23:17.688Z,18.3
2018-05-14T09:24:19.109Z,18.3
2018-05-14T09:25:20.507Z,18.4
2018-05-14T09:26:21.902Z,18.5
2018-05-14T09:27:23.298Z,18.5
2018-05-14T09:28:24.695Z,18.6
2018-05-14T09:29:26.100Z,18.6
2018-05-14T09:30:27.497Z,18.7
2018-05-14T09:31:28.894Z,18.7
2018-05-14T09:32:30.290Z,18.7
2018-05-14T09:33:31.685Z,18.8
2018-05-14T09:34:33.084Z,18.8
2018-05-14T09:35:34.484Z,18.8
2018-05-14T09:36:35.887Z,18.9
2018-05-14T09:37:37.282Z,18.9
2018-05-14T09:38:38.678Z,19.0
2018-05-14T09:39:40.076Z,19.0
2018-05-14T09:40:41.477Z,19.0
2018-05-14T09:41:42.871Z,19.0
2018-05-14T09:42:44.271Z,19.1
2018-05-14T09:43:45.670Z,19.1
2018-05-14T09:44:47.141Z,19.2
2018-05-14T09:45:48.593Z,19.2
2018-05-14T09:46:49.990Z,19.2
2018-05-14T09:47:51.390Z,19.3
2018-05-14T09:48:52.788Z,19.2
2018-05-14T09:49:54.180Z,19.3
2018-05-14T09:50:55.582Z,19.3
2018-05-14T09:51:56.982Z,19.4
2018-05-14T09:52:58.380Z,19.3
2018-05-14T09:53:59.786Z,19.4
2018-05-14T09:55:01.192Z,19.4
2018-05-14T09:56:02.577Z,19.3
2018-05-14T09:57:03.983Z,19.4
2018-05-14T09:58:05.384Z,19.3
2018-05-14T09:59:06.785Z,19.4
2018-05-14T10:00:08.181Z,19.3
2018-05-14T10:01:09.578Z,19.4
2018-05-14T10:02:10.977Z,19.4
2018-05-14T10:03:12.373Z,19.3
2018-05-14T10:04:13.789Z,19.4
2018-05-14T10:05:15.185Z,19.4
2018-05-14T10:06:16.585Z,19.4
2018-05-14T10:07:17.984Z,19.4
2018-05-14T10:08:19.380Z,19.4
2018-05-14T10:09:20.782Z,19.5
2018-05-14T10:10:22.182Z,19.6
2018-05-14T10:11:23.585Z,19.5
2018-05-14T10:12:24.978Z,19.5
2018-05-14T10:13:26.376Z,19.5
2018-05-14T10:14:27.778Z,19.5
2018-05-14T10:15:29.168Z,19.5
2018-05-14T10:16:30.565Z,19.5
2018-05-14T10:17:31.959Z,19.5
2018-05-14T10:18:33.361Z,19.5
2018-05-14T10:19:34.760Z,19.6
2018-05-14T10:20:36.159Z,19.7
2018-05-14T10:21:37.556Z,19.7
2018-05-14T10:22:38.989Z,19.7
2018-05-14T10:23:40.386Z,19.6
2018-05-14T10:24:41.856Z,19.8
2018-05-14T10:25:43.181Z,19.8
2018-05-14T10:26:44.580Z,19.7
2018-05-14T10:27:45.979Z,19.9
2018-05-14T10:28:47.400Z,19.9
2018-05-14T10:29:48.797Z,19.8
2018-05-14T10:30:50.198Z,19.9
2018-05-14T10:31:51.633Z,19.9
2018-05-14T10:32:53.092Z,19.9
2018-05-14T10:33:54.510Z,20.0
2018-05-14T10:34:55.910Z,19.9
2018-05-14T10:35:57.309Z,20.0
2018-05-14T10:36:58.707Z,20.0
2018-05-14T10:38:00.100Z,20.1
2018-05-14T10:39:01.502Z,20.2
2018-05-14T10:40:02.900Z,20.2
2018-05-14T10:41:04.302Z,20.3
2018-05-14T10:42:05.701Z,20.2
2018-05-14T10:43:07.096Z,20.2
2018-05-14T10:44:08.492Z,20.2
2018-05-14T10:45:09.893Z,20.1
2018-05-14T10:46:11.290Z,20.2
2018-05-14T10:47:12.688Z,20.1
2018-05-14T10:48:14.086Z,20.1
2018-05-14T10:49:15.482Z,20.1
2018-05-14T10:50:16.884Z,20.1
2018-05-14T10:51:18.281Z,20.1
2018-05-14T10:52:19.679Z,20.2
2018-05-14T10:53:21.076Z,20.2
2018-05-14T10:54:22.476Z,20.2
2018-05-14T10:55:23.874Z,20.2
2018-05-14T10:56:25.275Z,20.2
2018-05-14T10:57:26.674Z,20.2
2018-05-14T10:58:28.070Z,20.2
2018-05-14T10:59:29.472Z,20.2
2018-05-14T11:00:30.869Z,20.2
2018-05-14T11:01:32.272Z,20.2
2018-05-14T11:02:33.669Z,20.2
2018-05-14T11:03:35.067Z,20.2
2018-05-14T11:04:36.466Z,20.3
2018-05-14T11:05:37.864Z,20.3
2018-05-14T11:06:39.262Z,20.4
2018-05-14T11:07:40.661Z,20.3
2018-05-14T11:08:42.060Z,20.5
2018-05-14T11:09:43.479Z,20.5
2018-05-14T11:10:44.882Z,20.6
2018-05-14T11:11:46.275Z,20.5
2018-05-14T11:12:47.672Z,20.4
2018-05-14T11:13:49.068Z,20.5
2018-05-14T11:14:50.467Z,20.6
2018-05-14T11:15:51.865Z,20.6
2018-05-14T11:16:53.264Z,20.7
2018-05-14T11:17:54.662Z,20.8
2018-05-14T11:18:56.061Z,20.9
2018-05-14T11:19:57.534Z,21.0
2018-05-14T11:20:59.030Z,20.9
2018-05-14T11:22:00.439Z,20.9
2018-05-14T11:23:01.837Z,21.0
2018-05-14T11:24:03.240Z,21.0
2018-05-14T11:25:04.644Z,20.9
2018-05-14T11:26:06.032Z,21.0
2018-05-14T11:27:07.440Z,21.0
2018-05-14T11:28:08.840Z,21.1
2018-05-14T11:29:10.243Z,21.1
2018-05-14T11:30:11.650Z,21.3
2018-05-14T11:31:13.052Z,21.3
2018-05-14T11:32:14.454Z,21.5
2018-05-14T11:33:15.851Z,21.5
2018-05-14T11:34:17.263Z,21.5
2018-05-14T11:35:18.712Z,21.7
2018-05-14T11:36:20.065Z,21.7
2018-05-14T11:37:21.472Z,21.7
2018-05-14T11:38:22.871Z,21.7
2018-05-14T11:39:24.273Z,21.7
2018-05-14T11:40:25.685Z,21.7
2018-05-14T11:41:27.081Z,21.7
2018-05-14T11:42:28.481Z,21.7
2018-05-14T11:43:29.876Z,21.7
2018-05-14T11:44:31.285Z,21.6
2018-05-14T11:45:32.682Z,21.7
2018-05-14T11:46:34.082Z,21.8
2018-05-14T11:47:35.479Z,21.8
2018-05-14T11:48:36.879Z,22.0
2018-05-14T11:49:38.303Z,22.1
2018-05-14T11:50:39.750Z,22.3
2018-05-14T11:51:41.086Z,22.5
2018-05-14T11:52:42.485Z,22.7
2018-05-14T11:53:43.976Z,22.9
2018-05-14T11:54:45.398Z,23.2
2018-05-14T11:55:46.800Z,23.3
2018-05-14T11:56:48.199Z,23.1
2018-05-14T11:57:49.604Z,22.9
2018-05-14T11:58:51.007Z,23.0
2018-05-14T11:59:52.409Z,23.0
2018-05-14T12:00:53.903Z,23.0
2018-05-14T12:01:55.302Z,23.2
2018-05-14T12:02:56.827Z,23.4
2018-05-14T12:03:58.135Z,23.5
2018-05-14T12:04:59.524Z,23.5
2018-05-14T12:06:00.925Z,23.4
2018-05-14T12:07:02.382Z,23.2
2018-05-14T12:08:03.817Z,23.2
2018-05-14T12:09:05.214Z,23.0
2018-05-14T12:10:06.701Z,23.1
2018-05-14T12:11:08.021Z,23.2
2018-05-14T12:12:09.444Z,23.6
2018-05-14T12:13:10.819Z,23.6
2018-05-14T12:14:12.220Z,23.9
2018-05-14T12:15:13.638Z,23.9
2018-05-14T12:16:15.083Z,24.1
2018-05-14T12:17:16.589Z,24.2
2018-05-14T12:18:17.976Z,24.2
2018-05-14T12:19:19.380Z,24.4
2018-05-14T12:20:20.784Z,24.7
2018-05-14T12:21:22.209Z,24.9
2018-05-14T12:22:23.610Z,24.9
2018-05-14T12:23:25.013Z,25.1
2018-05-14T12:24:26.410Z,25.2
2018-05-14T12:25:27.818Z,25.4
2018-05-14T12:26:29.219Z,25.4
2018-05-14T12:27:30.620Z,25.6
2018-05-14T12:28:32.025Z,25.7
2018-05-14T12:29:33.442Z,25.9
2018-05-14T12:30:34.845Z,26.1
2018-05-14T12:31:36.253Z,26.1
2018-05-14T12:32:37.656Z,26.1
2018-05-14T12:33:39.065Z,26.1
2018-05-14T12:34:40.459Z,26.0
2018-05-14T12:35:41.868Z,26.0
2018-05-14T12:36:43.272Z,25.9
2018-05-14T12:37:44.676Z,25.8
2018-05-14T12:38:46.076Z,25.9
2018-05-14T12:39:47.479Z,26.1
2018-05-14T12:40:48.880Z,26.4
2018-05-14T12:41:50.287Z,26.7
2018-05-14T12:42:51.696Z,26.8
2018-05-14T12:43:53.100Z,27.1
2018-05-14T12:44:54.499Z,27.0
2018-05-14T12:45:55.899Z,27.3
2018-05-14T12:46:57.304Z,27.5
2018-05-14T12:47:58.706Z,27.5
2018-05-14T12:49:00.112Z,27.7
2018-05-14T12:50:01.526Z,27.8
2018-05-14T12:51:02.933Z,27.6
2018-05-14T12:52:04.336Z,27.5
2018-05-14T12:53:05.737Z,27.7
2018-05-14T12:54:07.227Z,27.9
2018-05-14T12:55:08.650Z,28.0
2018-05-14T12:56:10.055Z,28.2
2018-05-14T12:57:11.495Z,28.3
2018-05-14T12:58:12.900Z,28.3
2018-05-14T12:59:14.300Z,28.2
2018-05-14T13:00:15.705Z,28.4
2018-05-14T13:01:17.110Z,28.3
2018-05-14T13:02:18.514Z,28.2
2018-05-14T13:03:19.917Z,28.0
2018-05-14T13:04:21.321Z,27.8
2018-05-14T13:05:22.725Z,27.7
2018-05-14T13:06:24.144Z,27.7
2018-05-14T13:07:25.533Z,27.4
2018-05-14T13:08:26.942Z,27.5
2018-05-14T13:09:28.350Z,27.6
2018-05-14T13:10:29.756Z,27.6
2018-05-14T13:11:31.159Z,27.5
2018-05-14T13:12:32.567Z,27.3
2018-05-14T13:13:33.969Z,27.5
2018-05-14T13:14:35.368Z,27.5
2018-05-14T13:15:36.788Z,27.3
2018-05-14T13:16:38.194Z,26.8
2018-05-14T13:17:39.597Z,26.8
2018-05-14T13:18:41.002Z,27.0
2018-05-14T13:19:42.408Z,27.4
2018-05-14T13:20:43.806Z,27.2
2018-05-14T13:21:45.207Z,27.5
2018-05-14T13:22:46.615Z,27.7
2018-05-14T13:23:48.015Z,27.8
2018-05-14T13:24:49.422Z,27.8
2018-05-14T13:25:50.824Z,28.1
2018-05-14T13:26:52.228Z,28.4
2018-05-14T13:27:53.632Z,28.2
2018-05-14T13:28:55.035Z,28.3
2018-05-14T13:29:56.443Z,28.5
2018-05-14T13:30:57.843Z,28.4
2018-05-14T13:31:59.265Z,28.5
2018-05-14T13:33:00.655Z,28.7
2018-05-14T13:34:02.057Z,28.8
2018-05-14T13:35:03.466Z,28.7
2018-05-14T13:36:04.866Z,29.0
2018-05-14T13:37:06.270Z,29.2